createdAt,value
2022-07-29T00:00:47.874Z,51.78
2022-07-29T00:01:47.522Z,58.82
2022-07-29T00:02:47.396Z,61.32
2022-07-29T00:03:47.831Z,61.69
2022-07-29T00:04:47.271Z,59.21
2022-07-29T00:05:47.298Z,62.68
2022-07-29T00:06:47.258Z,48.34
2022-07-29T00:07:47.242Z,51.61
2022-07-29T00:08:47.267Z,62.67
2022-07-29T00:09:52.167Z,55.85
2022-07-29T00:10:48.245Z,47.66
2022-07-29T00:11:47.206Z,54.77
2022-07-29T00:12:47.203Z,62.71
2022-07-29T00:13:50.861Z,60.05
2022-07-29T00:14:48.253Z,58.48
2022-07-29T00:15:47.167Z,56.32
2022-07-29T00:16:47.238Z,60.21
2022-07-29T00:17:47.472Z,54.59
2022-07-29T00:18:47.169Z,55.72
2022-07-29T00:19:47.244Z,52.12
2022-07-29T00:20:47.099Z,55.84
2022-07-29T00:21:47.158Z,55.91
2022-07-29T00:22:47.077Z,48.46
2022-07-29T00:23:47.147Z,57.74
2022-07-29T00:24:47.212Z,57.73
2022-07-29T00:25:47.212Z,62.58
2022-07-29T00:26:47.028Z,47.88
2022-07-29T00:27:47.015Z,53.85
2022-07-29T00:28:47.119Z,61.12
2022-07-29T00:29:47.028Z,58.89
2022-07-29T00:30:47.014Z,56.51
2022-07-29T00:31:47.120Z,67.86
2022-07-29T00:32:47.016Z,59.45
2022-07-29T00:33:46.977Z,51.93
2022-07-29T00:34:47.064Z,60.05
2022-07-29T00:35:46.967Z,56.56
2022-07-29T00:36:46.990Z,59.17
2022-07-29T00:37:46.915Z,58.13
2022-07-29T00:38:46.897Z,47.13
2022-07-29T00:39:46.904Z,60.82
2022-07-29T00:40:46.908Z,61.04
2022-07-29T00:41:46.927Z,56.51
2022-07-29T00:42:46.894Z,61.00
2022-07-29T00:43:46.825Z,57.62
2022-07-29T00:44:47.844Z,62.53
2022-07-29T00:45:46.868Z,60.47
2022-07-29T00:46:47.061Z,50.37
2022-07-29T00:47:46.821Z,55.97
2022-07-29T00:48:46.879Z,61.77
2022-07-29T00:49:46.805Z,54.65
2022-07-29T00:50:46.799Z,47.73
2022-07-29T00:51:46.788Z,56.13
2022-07-29T00:52:46.878Z,52.72
2022-07-29T00:53:46.793Z,56.57
2022-07-29T00:54:47.726Z,52.79
2022-07-29T00:55:46.716Z,54.31
2022-07-29T00:56:46.800Z,57.67
2022-07-29T00:57:46.806Z,63.82
2022-07-29T00:58:46.849Z,64.34
2022-07-29T00:59:46.727Z,60.50
2022-07-29T01:00:46.691Z,52.01
2022-07-29T01:01:46.699Z,58.73
2022-07-29T01:02:46.712Z,53.79
2022-07-29T01:03:46.640Z,59.10
2022-07-29T01:04:46.749Z,59.53
2022-07-29T01:05:50.133Z,63.18
2022-07-29T01:06:46.632Z,56.85
2022-07-29T01:07:46.589Z,58.60
2022-07-29T01:08:46.597Z,59.85
2022-07-29T01:09:47.279Z,66.57
2022-07-29T01:10:47.542Z,55.06
2022-07-29T01:11:46.570Z,59.14
2022-07-29T01:12:46.568Z,61.19
2022-07-29T01:13:46.530Z,60.29
2022-07-29T01:14:46.561Z,53.85
2022-07-29T01:16:18.937Z,51.19
2022-07-29T01:17:18.861Z,54.37
2022-07-29T01:17:52.630Z,57.98
2022-07-29T01:18:47.426Z,56.29
2022-07-29T01:19:46.477Z,60.92
2022-07-29T01:20:46.466Z,56.26
2022-07-29T01:21:46.486Z,56.76
2022-07-29T01:22:46.409Z,59.21
2022-07-29T01:23:46.514Z,60.30
2022-07-29T01:24:46.414Z,61.52
2022-07-29T01:25:46.398Z,54.00
2022-07-29T01:26:46.355Z,47.86
2022-07-29T01:27:46.354Z,58.22
2022-07-29T01:28:46.362Z,52.21
2022-07-29T01:29:46.386Z,54.51
2022-07-29T01:30:46.341Z,54.72
2022-07-29T01:31:58.814Z,52.35
2022-07-29T01:32:47.309Z,57.47
2022-07-29T01:33:46.273Z,51.01
2022-07-29T01:34:46.367Z,59.16
2022-07-29T01:35:46.353Z,62.34
2022-07-29T01:36:46.297Z,50.70
2022-07-29T01:37:46.235Z,59.36
2022-07-29T01:38:46.357Z,57.29
2022-07-29T01:39:46.270Z,60.92
2022-07-29T01:40:46.379Z,52.82
2022-07-29T01:41:46.751Z,58.06
2022-07-29T01:42:46.231Z,52.68
2022-07-29T01:43:46.268Z,56.76
2022-07-29T01:44:46.197Z,55.78
2022-07-29T01:45:46.250Z,56.71
2022-07-29T01:46:46.278Z,58.00
2022-07-29T01:47:46.243Z,58.48
2022-07-29T01:48:46.220Z,59.47
2022-07-29T01:49:46.139Z,50.78
2022-07-29T01:50:46.144Z,57.84
2022-07-29T01:51:46.206Z,58.59
2022-07-29T01:52:46.061Z,57.37
2022-07-29T01:53:46.061Z,61.52
2022-07-29T01:54:46.639Z,62.75
2022-07-29T01:55:46.086Z,54.88
2022-07-29T01:56:46.095Z,55.99
2022-07-29T01:57:46.045Z,59.57
2022-07-29T01:58:46.034Z,54.22
2022-07-29T01:59:46.979Z,50.33
2022-07-29T02:00:45.978Z,55.13
2022-07-29T02:01:46.029Z,54.94
2022-07-29T02:02:45.927Z,56.24
2022-07-29T02:03:45.998Z,56.66
2022-07-29T02:04:45.980Z,48.97
2022-07-29T02:05:45.906Z,52.04
2022-07-29T02:06:45.946Z,49.85
2022-07-29T02:07:45.955Z,57.41
2022-07-29T02:08:45.886Z,61.66
2022-07-29T02:09:45.922Z,60.54
2022-07-29T02:10:45.862Z,55.77
2022-07-29T02:11:45.915Z,57.86
2022-07-29T02:12:50.885Z,60.59
2022-07-29T02:13:45.922Z,60.25
2022-07-29T02:14:45.935Z,59.72
2022-07-29T02:15:46.037Z,58.82
2022-07-29T02:16:45.799Z,59.03
2022-07-29T02:17:45.798Z,57.19
2022-07-29T02:18:45.855Z,51.26
2022-07-29T02:19:45.843Z,54.58
2022-07-29T02:20:45.813Z,65.62
2022-07-29T02:21:45.818Z,55.96
2022-07-29T02:22:46.028Z,54.96
2022-07-29T02:23:51.479Z,64.80
2022-07-29T02:24:46.827Z,62.93
2022-07-29T02:25:45.740Z,59.28
2022-07-29T02:26:45.727Z,57.72
2022-07-29T02:27:45.756Z,63.86
2022-07-29T02:28:45.714Z,61.09
2022-07-29T02:29:46.696Z,60.68
2022-07-29T02:30:45.813Z,55.75
2022-07-29T02:31:45.802Z,57.01
2022-07-29T02:32:47.085Z,62.85
2022-07-29T02:33:45.632Z,62.48
2022-07-29T02:34:45.652Z,61.35
2022-07-29T02:35:45.664Z,63.82
2022-07-29T02:36:45.648Z,62.43
2022-07-29T02:37:45.592Z,55.93
2022-07-29T02:38:45.622Z,62.16
2022-07-29T02:39:46.585Z,58.40
2022-07-29T02:40:45.549Z,59.53
2022-07-29T02:41:45.519Z,60.99
2022-07-29T02:42:45.649Z,64.09
2022-07-29T02:43:45.621Z,64.23
2022-07-29T02:44:45.549Z,60.04
2022-07-29T02:45:45.522Z,64.63
2022-07-29T02:46:45.497Z,63.41
2022-07-29T02:47:45.579Z,61.36
2022-07-29T02:48:45.533Z,62.06
2022-07-29T02:49:45.436Z,66.67
2022-07-29T02:50:46.537Z,57.86
2022-07-29T02:51:45.441Z,63.59
2022-07-29T02:52:45.384Z,58.46
2022-07-29T02:53:45.530Z,61.22
2022-07-29T02:54:46.413Z,64.88
2022-07-29T02:55:45.372Z,63.01
2022-07-29T02:56:45.353Z,65.10
2022-07-29T02:57:54.358Z,59.24
2022-07-29T02:58:46.422Z,62.54
2022-07-29T02:59:45.361Z,61.26
2022-07-29T03:00:45.342Z,66.41
2022-07-29T03:01:45.442Z,65.19
2022-07-29T03:02:45.365Z,66.74
2022-07-29T03:03:45.294Z,58.85
2022-07-29T03:04:45.371Z,53.79
2022-07-29T03:05:45.329Z,63.85
2022-07-29T03:06:45.250Z,65.68
2022-07-29T03:07:45.305Z,67.41
2022-07-29T03:08:45.302Z,67.21
2022-07-29T03:09:45.314Z,63.10
2022-07-29T03:10:45.266Z,60.41
2022-07-29T03:11:49.452Z,62.97
2022-07-29T03:12:45.234Z,68.69
2022-07-29T03:13:45.221Z,63.08
2022-07-29T03:14:45.297Z,65.65
2022-07-29T03:15:45.248Z,64.14
2022-07-29T03:16:45.283Z,64.25
2022-07-29T03:17:45.156Z,66.37
2022-07-29T03:18:45.125Z,64.96
2022-07-29T03:19:45.162Z,67.81
2022-07-29T03:20:45.137Z,68.70
2022-07-29T03:21:45.093Z,68.37
2022-07-29T03:22:45.821Z,66.75
2022-07-29T03:23:45.129Z,68.77
2022-07-29T03:24:45.159Z,66.79
2022-07-29T03:25:45.098Z,68.51
2022-07-29T03:26:45.086Z,67.36
2022-07-29T03:27:45.043Z,69.23
2022-07-29T03:28:45.053Z,67.64
2022-07-29T03:29:49.960Z,65.45
2022-07-29T03:30:47.527Z,66.70
2022-07-29T03:31:45.018Z,67.25
2022-07-29T03:32:44.999Z,67.77
2022-07-29T03:33:45.061Z,67.23
2022-07-29T03:34:44.999Z,69.67
2022-07-29T03:35:44.970Z,67.61
2022-07-29T03:36:44.977Z,69.14
2022-07-29T03:37:44.973Z,71.67
2022-07-29T03:38:44.966Z,67.45
2022-07-29T03:39:45.390Z,69.61
2022-07-29T03:40:45.351Z,69.91
2022-07-29T03:41:44.895Z,69.10
2022-07-29T03:42:44.911Z,71.16
2022-07-29T03:43:49.333Z,71.24
2022-07-29T03:44:44.923Z,71.24
2022-07-29T03:45:44.867Z,69.51
2022-07-29T03:46:44.982Z,69.58
2022-07-29T03:47:50.847Z,70.00
2022-07-29T03:48:46.433Z,69.69
2022-07-29T03:49:45.325Z,69.05
2022-07-29T03:50:44.856Z,69.40
2022-07-29T03:51:44.814Z,69.29
2022-07-29T03:52:45.345Z,68.92
2022-07-29T03:53:44.791Z,68.75
2022-07-29T03:54:44.795Z,68.64
2022-07-29T03:55:44.779Z,70.81
2022-07-29T03:56:44.779Z,70.96
2022-07-29T03:57:44.747Z,70.07
2022-07-29T03:58:44.779Z,68.04
2022-07-29T03:59:44.764Z,69.87
2022-07-29T04:00:44.704Z,71.36
2022-07-29T04:01:44.752Z,67.56
2022-07-29T04:02:44.691Z,70.83
2022-07-29T04:03:45.164Z,69.54
2022-07-29T04:04:45.234Z,69.03
2022-07-29T04:05:44.892Z,68.78
2022-07-29T04:06:44.639Z,68.63
2022-07-29T04:07:44.626Z,72.94
2022-07-29T04:08:44.615Z,71.40
2022-07-29T04:09:44.661Z,70.74
2022-07-29T04:10:44.592Z,69.89
2022-07-29T04:12:02.171Z,72.53
2022-07-29T04:12:45.597Z,71.16
2022-07-29T04:13:44.580Z,71.39
2022-07-29T04:14:44.573Z,70.56
2022-07-29T04:15:44.861Z,71.81
2022-07-29T04:16:44.901Z,69.91
2022-07-29T04:17:44.522Z,70.96
2022-07-29T04:18:44.536Z,72.13
2022-07-29T04:19:44.553Z,68.69
2022-07-29T04:20:44.560Z,71.58
2022-07-29T04:21:44.490Z,73.17
2022-07-29T04:22:45.056Z,69.82
2022-07-29T04:23:47.556Z,68.49
2022-07-29T04:24:45.475Z,71.17
2022-07-29T04:25:45.496Z,71.81
2022-07-29T04:26:44.437Z,71.70
2022-07-29T04:27:44.517Z,70.49
2022-07-29T04:28:44.445Z,72.65
2022-07-29T04:29:56.515Z,72.49
2022-07-29T04:30:45.488Z,72.73
2022-07-29T04:31:44.417Z,71.27
2022-07-29T04:32:44.765Z,72.31
2022-07-29T04:33:44.693Z,70.65
2022-07-29T04:34:44.394Z,71.24
2022-07-29T04:35:50.200Z,73.52
2022-07-29T04:36:45.297Z,72.96
2022-07-29T04:37:44.372Z,73.54
2022-07-29T04:38:44.758Z,71.69
2022-07-29T04:39:44.293Z,71.90
2022-07-29T04:40:44.294Z,72.28
2022-07-29T04:41:44.840Z,72.90
2022-07-29T04:42:46.903Z,72.36
2022-07-29T04:43:44.244Z,71.56
2022-07-29T04:44:44.253Z,70.89
2022-07-29T04:45:44.257Z,74.26
2022-07-29T04:46:44.293Z,70.82
2022-07-29T04:47:44.267Z,70.65
2022-07-29T04:48:45.254Z,70.02
2022-07-29T04:49:44.305Z,71.38
2022-07-29T04:50:44.161Z,71.46
2022-07-29T04:51:44.245Z,73.15
2022-07-29T04:52:44.162Z,71.71
2022-07-29T04:53:44.183Z,69.94
2022-07-29T04:54:44.131Z,70.14
2022-07-29T04:55:44.215Z,70.43
2022-07-29T04:56:44.132Z,72.89
2022-07-29T04:57:44.152Z,69.37
2022-07-29T04:58:44.104Z,69.84
2022-07-29T04:59:44.101Z,72.36
2022-07-29T05:00:44.108Z,67.64
2022-07-29T05:01:44.244Z,70.52
2022-07-29T05:02:44.105Z,70.45
2022-07-29T05:03:44.105Z,71.03
2022-07-29T05:04:44.065Z,69.62
2022-07-29T05:05:44.032Z,70.15
2022-07-29T05:06:44.033Z,71.61
2022-07-29T05:07:44.048Z,72.41
2022-07-29T05:08:44.058Z,67.77
2022-07-29T05:09:44.360Z,69.81
2022-07-29T05:10:43.982Z,70.06
2022-07-29T05:11:43.985Z,71.76
2022-07-29T05:12:44.740Z,70.27
2022-07-29T05:13:45.809Z,71.50
2022-07-29T05:14:43.927Z,69.45
2022-07-29T05:15:43.985Z,68.40
2022-07-29T05:16:43.908Z,71.62
2022-07-29T05:17:44.014Z,72.19
2022-07-29T05:18:43.944Z,70.07
2022-07-29T05:19:43.859Z,72.61
2022-07-29T05:20:44.008Z,69.36
2022-07-29T05:21:43.907Z,68.72
2022-07-29T05:22:43.848Z,70.87
2022-07-29T05:23:43.907Z,71.58
2022-07-29T05:24:43.839Z,70.07
2022-07-29T05:25:44.941Z,70.57
2022-07-29T05:26:43.813Z,72.15
2022-07-29T05:27:43.775Z,70.98
2022-07-29T05:28:43.765Z,68.62
2022-07-29T05:29:45.761Z,70.86
2022-07-29T05:30:44.828Z,74.04
2022-07-29T05:31:43.743Z,70.21
2022-07-29T05:32:43.761Z,69.11
2022-07-29T05:33:43.740Z,69.92
2022-07-29T05:34:50.854Z,68.39
2022-07-29T05:35:44.999Z,72.60
2022-07-29T05:36:43.726Z,71.95
2022-07-29T05:37:43.720Z,71.32
2022-07-29T05:38:43.901Z,70.93
2022-07-29T05:39:48.871Z,70.24
2022-07-29T05:40:44.680Z,71.44
2022-07-29T05:41:45.689Z,71.73
2022-07-29T05:42:43.654Z,71.38
2022-07-29T05:43:43.642Z,71.22
2022-07-29T05:44:43.653Z,69.91
2022-07-29T05:45:49.797Z,71.44
2022-07-29T05:46:43.692Z,74.26
2022-07-29T05:47:43.577Z,69.94
2022-07-29T05:48:43.607Z,70.38
2022-07-29T05:49:43.639Z,73.66
2022-07-29T05:50:44.235Z,71.06
2022-07-29T05:51:43.551Z,70.57
2022-07-29T05:52:43.556Z,71.42
2022-07-29T05:53:43.540Z,70.33
2022-07-29T05:54:43.563Z,69.88
2022-07-29T05:55:43.541Z,68.92
2022-07-29T05:56:43.483Z,70.01
2022-07-29T05:57:43.486Z,71.65
2022-07-29T05:58:43.506Z,72.95
2022-07-29T05:59:43.446Z,69.53
2022-07-29T06:00:43.460Z,68.56
2022-07-29T06:01:43.519Z,70.36
2022-07-29T06:02:43.445Z,68.20
2022-07-29T06:03:43.443Z,69.06
2022-07-29T06:04:43.440Z,71.40
2022-07-29T06:05:43.453Z,72.57
2022-07-29T06:06:43.414Z,70.05
2022-07-29T06:07:51.551Z,67.71
2022-07-29T06:08:44.377Z,71.41
2022-07-29T06:09:43.345Z,68.53
2022-07-29T06:10:43.325Z,70.04
2022-07-29T06:11:44.361Z,71.79
2022-07-29T06:12:43.350Z,69.09
2022-07-29T06:13:43.301Z,69.27
2022-07-29T06:14:43.332Z,72.76
2022-07-29T06:15:43.334Z,71.27
2022-07-29T06:16:43.362Z,69.74
2022-07-29T06:18:00.565Z,69.40
2022-07-29T06:18:44.274Z,71.64
2022-07-29T06:19:43.337Z,70.25
2022-07-29T06:20:43.233Z,71.70
2022-07-29T06:21:43.193Z,69.31
2022-07-29T06:22:43.240Z,71.08
2022-07-29T06:23:43.233Z,68.31
2022-07-29T06:24:43.246Z,70.25
2022-07-29T06:25:43.166Z,70.59
2022-07-29T06:26:43.187Z,71.65
2022-07-29T06:27:43.185Z,71.16
2022-07-29T06:28:43.161Z,69.85
2022-07-29T06:29:43.933Z,66.94
2022-07-29T06:30:43.818Z,70.98
2022-07-29T06:31:43.194Z,70.24
2022-07-29T06:32:43.547Z,70.53
2022-07-29T06:33:44.166Z,69.87
2022-07-29T06:34:43.098Z,72.34
2022-07-29T06:35:43.056Z,70.97
2022-07-29T06:36:44.060Z,71.12
2022-07-29T06:37:43.275Z,71.48
2022-07-29T06:38:49.459Z,71.73
2022-07-29T06:39:44.045Z,69.84
2022-07-29T06:40:43.049Z,69.97
2022-07-29T06:41:43.000Z,70.48
2022-07-29T06:42:42.995Z,68.28
2022-07-29T06:43:52.091Z,72.04
2022-07-29T06:44:43.972Z,72.13
2022-07-29T06:45:43.009Z,72.26
2022-07-29T06:46:43.081Z,72.39
2022-07-29T06:47:42.927Z,69.30
2022-07-29T06:48:42.983Z,73.12
2022-07-29T06:49:42.939Z,72.15
2022-07-29T06:50:42.900Z,69.67
2022-07-29T06:51:42.937Z,68.55
2022-07-29T06:52:42.888Z,70.71
2022-07-29T06:54:00.141Z,70.34
2022-07-29T06:54:43.874Z,70.52
2022-07-29T06:55:42.876Z,71.97
2022-07-29T06:56:42.868Z,67.22
2022-07-29T06:57:42.855Z,71.33
2022-07-29T06:58:42.841Z,70.25
2022-07-29T06:59:42.850Z,71.34
2022-07-29T07:00:42.804Z,70.95
2022-07-29T07:01:42.934Z,71.19
2022-07-29T07:02:42.866Z,70.35
2022-07-29T07:03:42.787Z,71.24
2022-07-29T07:04:42.771Z,69.30
2022-07-29T07:05:42.870Z,69.83
2022-07-29T07:06:42.752Z,70.85
2022-07-29T07:07:42.750Z,70.10
2022-07-29T07:08:42.724Z,69.72
2022-07-29T07:09:42.750Z,71.85
2022-07-29T07:10:42.804Z,71.34
2022-07-29T07:11:42.753Z,71.55
2022-07-29T07:12:42.742Z,70.57
2022-07-29T07:13:42.643Z,70.74
2022-07-29T07:14:42.646Z,69.78
2022-07-29T07:15:42.840Z,72.12
2022-07-29T07:16:43.226Z,72.71
2022-07-29T07:17:42.723Z,71.12
2022-07-29T07:18:42.604Z,70.10
2022-07-29T07:19:42.617Z,74.03
2022-07-29T07:20:42.743Z,71.61
2022-07-29T07:21:42.730Z,72.58
2022-07-29T07:22:42.542Z,74.04
2022-07-29T07:23:42.604Z,72.91
2022-07-29T07:24:42.590Z,72.58
2022-07-29T07:25:42.637Z,71.07
2022-07-29T07:26:43.246Z,71.42
2022-07-29T07:27:42.490Z,69.85
2022-07-29T07:28:42.500Z,71.91
2022-07-29T07:29:44.169Z,71.06
2022-07-29T07:30:42.599Z,72.65
2022-07-29T07:31:42.607Z,70.88
2022-07-29T07:32:42.438Z,71.54
2022-07-29T07:33:42.565Z,69.90
2022-07-29T07:34:42.668Z,72.03
2022-07-29T07:35:42.490Z,70.68
2022-07-29T07:36:42.506Z,69.25
2022-07-29T07:37:42.511Z,72.62
2022-07-29T07:38:42.773Z,75.42
2022-07-29T07:39:42.716Z,69.57
2022-07-29T07:40:42.539Z,71.00
2022-07-29T07:41:42.459Z,70.02
2022-07-29T07:42:42.523Z,71.37
2022-07-29T07:43:42.336Z,70.91
2022-07-29T07:45:03.883Z,71.09
2022-07-29T07:45:44.419Z,69.18
2022-07-29T07:46:42.299Z,73.01
2022-07-29T07:47:42.283Z,71.00
2022-07-29T07:48:42.318Z,73.30
2022-07-29T07:49:42.303Z,71.77
2022-07-29T07:50:42.417Z,71.06
2022-07-29T07:51:42.396Z,71.72
2022-07-29T07:52:43.596Z,71.10
2022-07-29T07:53:42.592Z,69.71
2022-07-29T07:54:43.025Z,70.66
2022-07-29T07:56:08.122Z,71.10
2022-07-29T07:56:44.666Z,69.25
2022-07-29T07:57:42.431Z,69.00
2022-07-29T07:58:42.373Z,71.67
2022-07-29T07:59:42.409Z,73.24
2022-07-29T08:00:42.284Z,70.45
2022-07-29T08:01:48.073Z,71.96
2022-07-29T08:02:43.484Z,73.00
2022-07-29T08:03:42.689Z,71.08
2022-07-29T08:04:42.448Z,72.38
2022-07-29T08:05:42.206Z,72.33
2022-07-29T08:06:42.069Z,71.26
2022-07-29T08:07:42.211Z,71.73
2022-07-29T08:08:42.864Z,70.62
2022-07-29T08:09:42.252Z,72.38
2022-07-29T08:10:43.149Z,72.13
2022-07-29T08:11:48.233Z,71.38
2022-07-29T08:12:43.088Z,73.60
2022-07-29T08:13:42.033Z,72.58
2022-07-29T08:14:42.045Z,71.54
2022-07-29T08:15:41.998Z,72.51
2022-07-29T08:16:42.198Z,73.09
2022-07-29T08:17:42.036Z,72.47
2022-07-29T08:18:42.035Z,72.47
2022-07-29T08:19:42.438Z,71.54
2022-07-29T08:20:42.021Z,73.02
2022-07-29T08:21:41.999Z,73.19
2022-07-29T08:22:44.028Z,70.96
2022-07-29T08:23:47.063Z,73.79
2022-07-29T08:24:43.895Z,71.56
2022-07-29T08:25:42.678Z,71.57
2022-07-29T08:26:42.519Z,72.19
2022-07-29T08:27:43.731Z,71.50
2022-07-29T08:28:42.874Z,71.95
2022-07-29T08:29:41.832Z,73.32
2022-07-29T08:30:42.051Z,71.92
2022-07-29T08:31:41.913Z,73.06
2022-07-29T08:32:53.791Z,71.66
2022-07-29T08:33:44.318Z,73.13
2022-07-29T08:34:41.808Z,71.09
2022-07-29T08:35:42.305Z,71.47
2022-07-29T08:36:41.924Z,72.09
2022-07-29T08:37:42.127Z,71.05
2022-07-29T08:38:42.027Z,74.08
2022-07-29T08:39:43.124Z,73.77
2022-07-29T08:40:42.184Z,71.68
2022-07-29T08:41:56.807Z,74.14
2022-07-29T08:42:42.891Z,73.51
2022-07-29T08:43:42.041Z,72.78
2022-07-29T08:44:41.699Z,74.56
2022-07-29T08:45:42.301Z,74.27
2022-07-29T08:46:42.093Z,73.94
2022-07-29T08:47:41.864Z,72.84
2022-07-29T08:48:41.836Z,73.24
2022-07-29T08:49:41.762Z,72.21
2022-07-29T08:50:42.525Z,71.53
2022-07-29T08:51:49.430Z,69.97
2022-07-29T08:52:43.074Z,71.59
2022-07-29T08:53:42.220Z,70.24
2022-07-29T08:54:42.149Z,73.46
2022-07-29T08:55:42.254Z,73.34
2022-07-29T08:56:41.796Z,73.77
2022-07-29T08:57:50.800Z,69.78
2022-07-29T08:58:41.595Z,71.04
2022-07-29T08:59:41.724Z,70.86
2022-07-29T09:00:41.660Z,71.95
2022-07-29T09:01:42.739Z,71.91
2022-07-29T09:02:41.800Z,70.24
2022-07-29T09:03:42.025Z,69.28
2022-07-29T09:04:41.664Z,72.27
2022-07-29T09:05:44.933Z,71.91
2022-07-29T09:06:42.687Z,71.31
2022-07-29T09:07:41.908Z,72.70
2022-07-29T09:08:42.005Z,71.65
2022-07-29T09:09:41.705Z,69.88
2022-07-29T09:10:41.535Z,71.12
2022-07-29T09:11:41.392Z,72.91
2022-07-29T09:12:41.424Z,70.53
2022-07-29T09:13:41.511Z,72.81
2022-07-29T09:14:41.373Z,71.58
2022-07-29T09:15:41.357Z,72.64
2022-07-29T09:17:00.885Z,72.07
2022-07-29T09:17:43.359Z,69.39
2022-07-29T09:18:41.320Z,70.94
2022-07-29T09:19:45.533Z,71.22
2022-07-29T09:20:41.314Z,71.24
2022-07-29T09:21:41.322Z,73.05
2022-07-29T09:22:42.220Z,71.98
2022-07-29T09:23:41.346Z,71.51
2022-07-29T09:24:41.549Z,69.37
2022-07-29T09:25:42.311Z,71.09
2022-07-29T09:26:41.819Z,72.28
2022-07-29T09:27:41.498Z,71.60
2022-07-29T09:28:41.584Z,70.90
2022-07-29T09:29:42.187Z,71.26
2022-07-29T09:30:41.355Z,70.18
2022-07-29T09:31:42.240Z,69.57
2022-07-29T09:32:41.507Z,67.66
2022-07-29T09:33:41.483Z,71.25
2022-07-29T09:34:41.171Z,71.00
2022-07-29T09:35:41.155Z,69.66
2022-07-29T09:36:42.471Z,73.01
2022-07-29T09:37:41.199Z,69.69
2022-07-29T09:38:41.102Z,71.69
2022-07-29T09:39:41.122Z,71.20
2022-07-29T09:40:41.099Z,69.44
2022-07-29T09:41:41.056Z,71.61
2022-07-29T09:42:41.143Z,72.43
2022-07-29T09:43:41.883Z,71.55
2022-07-29T09:44:41.035Z,71.04
2022-07-29T09:45:41.043Z,70.64
2022-07-29T09:46:41.112Z,70.80
2022-07-29T09:47:41.101Z,70.93
2022-07-29T09:48:41.112Z,70.63
2022-07-29T09:49:41.035Z,70.77
2022-07-29T09:50:41.451Z,70.18
2022-07-29T09:51:41.695Z,72.59
2022-07-29T09:52:41.188Z,71.44
2022-07-29T09:53:42.443Z,70.17
2022-07-29T09:54:40.920Z,71.64
2022-07-29T09:55:42.588Z,69.93
2022-07-29T09:56:43.025Z,71.73
2022-07-29T09:57:42.084Z,72.32
2022-07-29T09:58:42.978Z,71.66
2022-07-29T09:59:50.246Z,71.64
2022-07-29T10:00:41.888Z,71.07
2022-07-29T10:01:41.689Z,71.26
2022-07-29T10:02:42.744Z,70.83
2022-07-29T10:03:42.932Z,70.77
2022-07-29T10:04:41.200Z,71.01
2022-07-29T10:05:42.842Z,71.75
2022-07-29T10:06:42.578Z,70.84
2022-07-29T10:07:43.850Z,69.99
2022-07-29T10:08:42.910Z,72.99
2022-07-29T10:09:42.062Z,71.79
2022-07-29T10:10:43.309Z,72.16
2022-07-29T10:11:48.988Z,70.38
2022-07-29T10:12:41.852Z,73.10
2022-07-29T10:13:44.740Z,72.30
2022-07-29T10:14:43.370Z,71.12
2022-07-29T10:15:41.936Z,72.28
2022-07-29T10:16:40.931Z,72.93
2022-07-29T10:17:41.877Z,70.05
2022-07-29T10:18:41.914Z,71.75
2022-07-29T10:19:41.761Z,70.78
2022-07-29T10:20:44.886Z,72.15
2022-07-29T10:21:41.918Z,69.40
2022-07-29T10:22:53.089Z,72.45
2022-07-29T10:23:46.105Z,71.38
2022-07-29T10:24:40.736Z,69.90
2022-07-29T10:25:45.688Z,71.19
2022-07-29T10:26:41.656Z,71.45
2022-07-29T10:27:40.630Z,72.33
2022-07-29T10:28:40.597Z,71.76
2022-07-29T10:29:40.566Z,69.20
2022-07-29T10:30:40.559Z,71.11
2022-07-29T10:31:40.651Z,69.01
2022-07-29T10:32:41.378Z,70.59
2022-07-29T10:33:40.558Z,71.25
2022-07-29T10:34:40.527Z,70.76
2022-07-29T10:35:40.543Z,70.04
2022-07-29T10:36:40.550Z,71.33
2022-07-29T10:37:45.849Z,69.98
2022-07-29T10:38:45.666Z,70.84
2022-07-29T10:39:44.624Z,69.13
2022-07-29T10:40:41.574Z,70.06
2022-07-29T10:41:43.794Z,70.55
2022-07-29T10:42:40.448Z,69.54
2022-07-29T10:43:42.381Z,68.87
2022-07-29T10:44:42.872Z,70.93
2022-07-29T10:45:40.423Z,70.93
2022-07-29T10:46:41.305Z,70.48
2022-07-29T10:47:40.435Z,70.59
2022-07-29T10:48:40.452Z,71.94
2022-07-29T10:49:41.172Z,69.07
2022-07-29T10:50:41.480Z,69.20
2022-07-29T10:51:40.480Z,70.42
2022-07-29T10:52:40.377Z,70.30
2022-07-29T10:53:40.304Z,71.30
2022-07-29T10:54:43.627Z,69.52
2022-07-29T10:55:43.403Z,70.15
2022-07-29T10:56:40.959Z,70.80
2022-07-29T10:57:54.054Z,69.64
2022-07-29T10:58:41.292Z,72.08
2022-07-29T10:59:44.599Z,70.30
2022-07-29T11:00:40.323Z,71.51
2022-07-29T11:01:40.304Z,70.32
2022-07-29T11:02:43.779Z,71.13
2022-07-29T11:03:40.244Z,69.72
2022-07-29T11:04:41.202Z,70.16
2022-07-29T11:05:40.979Z,70.89
2022-07-29T11:06:40.248Z,68.72
2022-07-29T11:07:45.959Z,71.99
2022-07-29T11:08:41.184Z,72.11
2022-07-29T11:09:40.157Z,72.51
2022-07-29T11:10:40.206Z,71.45
2022-07-29T11:11:40.196Z,70.73
2022-07-29T11:12:40.173Z,70.07
2022-07-29T11:13:41.429Z,71.08
2022-07-29T11:14:41.141Z,71.77
2022-07-29T11:15:40.076Z,69.29
2022-07-29T11:16:40.120Z,70.39
2022-07-29T11:17:52.136Z,71.28
2022-07-29T11:18:42.064Z,71.23
2022-07-29T11:19:42.388Z,72.89
2022-07-29T11:20:40.030Z,72.53
2022-07-29T11:22:05.152Z,71.65
2022-07-29T11:22:42.961Z,70.29
2022-07-29T11:23:42.868Z,71.97
2022-07-29T11:25:42.990Z,72.01
2022-07-29T11:26:39.995Z,70.95
2022-07-29T11:27:39.982Z,70.81
2022-07-29T11:28:39.917Z,69.46
2022-07-29T11:29:40.263Z,71.23
2022-07-29T11:30:39.934Z,71.57
2022-07-29T11:31:39.993Z,73.34
2022-07-29T11:32:39.915Z,71.74
2022-07-29T11:33:55.813Z,71.35
2022-07-29T11:34:40.854Z,70.18
2022-07-29T11:35:40.026Z,71.45
2022-07-29T11:36:39.869Z,68.86
2022-07-29T11:37:42.391Z,69.98
2022-07-29T11:38:41.602Z,72.74
2022-07-29T11:39:39.833Z,71.64
2022-07-29T11:40:39.891Z,71.61
2022-07-29T11:41:39.810Z,71.75
2022-07-29T11:42:41.763Z,71.54
2022-07-29T11:43:39.786Z,71.57
2022-07-29T11:44:39.750Z,71.20
2022-07-29T11:45:41.293Z,69.55
2022-07-29T11:46:39.798Z,69.52
2022-07-29T11:47:39.926Z,72.24
2022-07-29T11:48:40.787Z,71.62
2022-07-29T11:49:39.746Z,71.64
2022-07-29T11:50:44.354Z,71.71
2022-07-29T11:52:49.447Z,70.46
2022-07-29T11:53:40.718Z,68.39
2022-07-29T11:54:58.136Z,69.47
2022-07-29T11:55:50.841Z,69.69
2022-07-29T11:56:40.676Z,69.71
2022-07-29T11:57:39.689Z,69.18
2022-07-29T11:58:39.706Z,69.51
2022-07-29T11:59:39.641Z,70.35
2022-07-29T12:00:39.645Z,71.99
2022-07-29T12:01:39.642Z,70.83
2022-07-29T12:02:40.727Z,70.02
2022-07-29T12:03:39.791Z,69.02
2022-07-29T12:04:39.598Z,71.26
2022-07-29T12:05:39.591Z,70.06
2022-07-29T12:06:39.552Z,70.66
2022-07-29T12:07:41.155Z,68.47
2022-07-29T12:08:40.557Z,70.46
2022-07-29T12:09:40.429Z,71.55
2022-07-29T12:10:39.573Z,71.11
2022-07-29T12:11:39.605Z,71.88
2022-07-29T12:12:39.471Z,71.32
2022-07-29T12:13:39.505Z,70.24
2022-07-29T12:14:39.545Z,69.99
2022-07-29T12:15:47.056Z,69.91
2022-07-29T12:16:41.314Z,70.40
2022-07-29T12:17:39.461Z,70.87
2022-07-29T12:18:40.414Z,70.37
2022-07-29T12:19:39.450Z,71.07
2022-07-29T12:20:39.518Z,72.53
2022-07-29T12:21:39.442Z,70.75
2022-07-29T12:22:40.354Z,70.54
2022-07-29T12:23:39.478Z,69.50
2022-07-29T12:24:39.426Z,70.25
2022-07-29T12:25:39.491Z,69.97
2022-07-29T12:26:40.423Z,70.25
2022-07-29T12:27:40.551Z,69.75
2022-07-29T12:28:39.297Z,70.26
2022-07-29T12:29:39.363Z,71.17
2022-07-29T12:30:40.294Z,72.60
2022-07-29T12:31:43.303Z,71.85
2022-07-29T12:32:40.314Z,70.16
2022-07-29T12:33:39.236Z,72.77
2022-07-29T12:34:40.187Z,68.58
2022-07-29T12:35:39.276Z,68.90
2022-07-29T12:36:39.279Z,68.90
2022-07-29T12:37:41.326Z,70.52
2022-07-29T12:38:39.178Z,70.78
2022-07-29T12:39:39.187Z,70.82
2022-07-29T12:40:39.183Z,70.90
2022-07-29T12:41:39.279Z,69.01
2022-07-29T12:42:39.244Z,70.41
2022-07-29T12:43:39.164Z,68.54
2022-07-29T12:44:39.184Z,69.62
2022-07-29T12:45:39.132Z,70.49
2022-07-29T12:46:39.593Z,70.89
2022-07-29T12:47:39.176Z,70.63
2022-07-29T12:48:39.192Z,69.98
2022-07-29T12:49:39.164Z,70.32
2022-07-29T12:50:39.113Z,69.38
2022-07-29T12:51:39.081Z,70.58
2022-07-29T12:52:39.128Z,69.51
2022-07-29T12:53:39.068Z,68.34
2022-07-29T12:54:39.041Z,70.23